createdAt,value
2022-10-22T00:01:00.525Z,15.60
2022-10-22T00:03:28.519Z,15.60
2022-10-22T00:05:56.780Z,15.50
2022-10-22T00:08:24.792Z,15.50
2022-10-22T00:10:52.971Z,15.60
2022-10-22T00:13:21.611Z,15.60
2022-10-22T00:15:49.702Z,15.50
2022-10-22T00:18:19.028Z,15.60
2022-10-22T00:20:47.019Z,15.60
2022-10-22T00:23:15.034Z,15.60
2022-10-22T00:25:43.024Z,15.60
2022-10-22T00:28:11.614Z,15.60
2022-10-22T00:30:39.688Z,15.60
2022-10-22T00:33:07.763Z,15.60
2022-10-22T00:35:37.369Z,15.60
2022-10-22T00:38:06.067Z,15.60
2022-10-22T00:40:34.101Z,15.60
2022-10-22T00:43:02.127Z,15.60
2022-10-22T00:45:30.817Z,15.50
2022-10-22T00:48:02.709Z,15.50
2022-10-22T00:50:35.180Z,15.50
2022-10-22T00:53:07.611Z,15.50
2022-10-22T00:55:36.229Z,15.50
2022-10-22T00:58:05.221Z,15.50
2022-10-22T01:00:33.416Z,15.50
2022-10-22T01:03:01.965Z,15.50
2022-10-22T01:05:32.857Z,15.60
2022-10-22T01:08:01.114Z,15.60
2022-10-22T01:10:43.293Z,15.60
2022-10-22T01:13:25.309Z,15.50
2022-10-22T01:16:01.253Z,15.50
2022-10-22T01:18:38.189Z,15.50
2022-10-22T01:21:16.421Z,15.50
2022-10-22T01:24:07.150Z,15.50
2022-10-22T01:26:49.588Z,15.50
2022-10-22T01:29:21.527Z,15.50
2022-10-22T01:31:55.606Z,15.50
2022-10-22T01:34:25.419Z,15.50
2022-10-22T01:36:55.178Z,15.50
2022-10-22T01:39:24.854Z,15.40
2022-10-22T01:41:56.236Z,15.40
2022-10-22T01:44:28.287Z,15.50
2022-10-22T01:47:11.767Z,15.40
2022-10-22T01:50:05.544Z,15.40
2022-10-22T01:52:51.990Z,15.40
2022-10-22T01:55:28.632Z,15.40
2022-10-22T01:58:06.097Z,15.40
2022-10-22T02:00:39.417Z,15.40
2022-10-22T02:03:11.388Z,15.40
2022-10-22T02:05:45.489Z,15.40
2022-10-22T02:08:16.920Z,15.40
2022-10-22T02:10:47.665Z,15.50
2022-10-22T02:13:19.440Z,15.40
2022-10-22T02:15:52.522Z,15.40
2022-10-22T02:18:22.739Z,15.40
2022-10-22T02:20:51.503Z,15.40
2022-10-22T02:23:20.491Z,15.40
2022-10-22T02:25:54.875Z,15.40
2022-10-22T02:28:27.772Z,15.30
2022-10-22T02:31:05.310Z,15.30
2022-10-22T02:33:37.954Z,15.30
2022-10-22T02:36:08.060Z,15.40
2022-10-22T02:38:37.046Z,15.30
2022-10-22T02:41:05.554Z,15.30
2022-10-22T02:43:41.443Z,15.30
2022-10-22T02:46:11.369Z,15.30
2022-10-22T02:48:39.414Z,15.20
2022-10-22T02:51:07.622Z,15.20
2022-10-22T02:53:35.624Z,15.20
2022-10-22T02:56:03.682Z,15.20
2022-10-22T02:58:31.715Z,15.20
2022-10-22T03:00:59.736Z,15.20
2022-10-22T03:03:29.139Z,15.20
2022-10-22T03:05:57.156Z,15.20
2022-10-22T03:08:25.179Z,15.10
2022-10-22T03:10:53.340Z,15.20
2022-10-22T03:13:21.408Z,15.20
2022-10-22T03:15:50.384Z,15.20
2022-10-22T03:18:18.676Z,15.20
2022-10-22T03:20:48.022Z,15.20
2022-10-22T03:23:19.289Z,15.20
2022-10-22T03:25:49.602Z,15.20
2022-10-22T03:28:19.693Z,15.10
2022-10-22T03:30:47.683Z,15.20
2022-10-22T03:33:15.706Z,15.10
2022-10-22T03:35:47.915Z,15.20
2022-10-22T03:38:16.359Z,15.20
2022-10-22T03:40:45.541Z,15.10
2022-10-22T03:43:13.782Z,15.20
2022-10-22T03:45:41.769Z,15.20
2022-10-22T03:48:09.819Z,15.20
2022-10-22T03:50:37.798Z,15.20
2022-10-22T03:53:10.547Z,15.20
2022-10-22T03:55:39.194Z,15.20
2022-10-22T03:58:07.249Z,15.20
2022-10-22T04:00:36.159Z,15.20
2022-10-22T04:03:04.540Z,15.20
2022-10-22T04:05:33.731Z,15.30
2022-10-22T04:08:02.048Z,15.30
2022-10-22T04:10:31.477Z,15.30
2022-10-22T04:12:59.504Z,15.30
2022-10-22T04:15:29.043Z,15.30
2022-10-22T04:17:57.520Z,15.30
2022-10-22T04:20:25.568Z,15.30
2022-10-22T04:22:53.612Z,15.30
2022-10-22T04:25:21.636Z,15.30
2022-10-22T04:27:51.060Z,15.30
2022-10-22T04:30:19.251Z,15.30
2022-10-22T04:32:47.279Z,15.30
2022-10-22T04:35:15.435Z,15.30
2022-10-22T04:37:43.539Z,15.30
2022-10-22T04:40:13.011Z,15.30
2022-10-22T04:42:41.026Z,15.30
2022-10-22T04:45:11.866Z,15.30
2022-10-22T04:47:40.223Z,15.30
2022-10-22T04:50:09.312Z,15.30
2022-10-22T04:52:37.353Z,15.30
2022-10-22T04:55:05.953Z,15.30
2022-10-22T04:57:34.151Z,15.30
2022-10-22T05:00:02.159Z,15.20
2022-10-22T05:02:31.543Z,15.30
2022-10-22T05:04:59.562Z,15.20
2022-10-22T05:07:27.587Z,15.20
2022-10-22T05:09:55.654Z,15.20
2022-10-22T05:12:23.635Z,15.20
2022-10-22T05:14:51.631Z,15.20
2022-10-22T05:17:19.615Z,15.20
2022-10-22T05:19:49.003Z,15.10
2022-10-22T05:22:17.079Z,15.10
2022-10-22T05:24:45.247Z,15.10
2022-10-22T05:27:13.306Z,15.20
2022-10-22T05:29:41.369Z,15.20
2022-10-22T05:32:09.422Z,15.20
2022-10-22T05:34:37.633Z,15.20
2022-10-22T05:37:06.991Z,15.20
2022-10-22T05:39:36.882Z,15.20
2022-10-22T05:42:05.325Z,15.20
2022-10-22T05:44:33.440Z,15.10
2022-10-22T05:47:01.426Z,15.00
2022-10-22T05:49:29.546Z,15.00
2022-10-22T05:51:57.549Z,15.00
2022-10-22T05:54:26.882Z,15.00
2022-10-22T05:56:55.668Z,15.00
2022-10-22T05:59:23.693Z,15.00
2022-10-22T06:01:51.799Z,15.00
2022-10-22T06:04:19.857Z,15.00
2022-10-22T06:06:50.077Z,15.00
2022-10-22T06:09:21.580Z,15.10
2022-10-22T06:11:51.823Z,15.10
2022-10-22T06:14:21.306Z,15.00
2022-10-22T06:16:49.936Z,15.00
2022-10-22T06:19:20.119Z,15.00
2022-10-22T06:21:48.541Z,15.10
2022-10-22T06:24:17.247Z,15.10
2022-10-22T06:26:45.305Z,15.00
2022-10-22T06:29:14.654Z,15.00
2022-10-22T06:31:42.729Z,15.00
2022-10-22T06:34:13.827Z,15.00
2022-10-22T06:36:42.850Z,14.90
2022-10-22T06:39:13.131Z,14.90
2022-10-22T06:41:41.416Z,14.90
2022-10-22T06:44:16.148Z,14.90
2022-10-22T06:46:44.933Z,15.00
2022-10-22T06:49:14.910Z,15.00
2022-10-22T06:51:43.096Z,14.90
2022-10-22T06:54:11.147Z,14.90
2022-10-22T06:56:39.329Z,14.90
2022-10-22T06:59:07.344Z,14.90
2022-10-22T07:01:37.962Z,15.00
2022-10-22T07:04:07.105Z,14.90
2022-10-22T07:06:35.170Z,15.00
2022-10-22T07:09:03.319Z,15.00
2022-10-22T07:11:38.812Z,14.90
2022-10-22T07:14:06.849Z,14.90
2022-10-22T07:16:36.248Z,14.80
2022-10-22T07:19:05.786Z,14.80
2022-10-22T07:21:34.083Z,14.80
2022-10-22T07:24:02.301Z,14.90
2022-10-22T07:26:32.803Z,14.90
2022-10-22T07:29:00.944Z,14.90
2022-10-22T07:31:29.690Z,14.90
2022-10-22T07:33:59.327Z,14.90
2022-10-22T07:36:27.458Z,14.90
2022-10-22T07:38:57.875Z,15.00
2022-10-22T07:41:26.359Z,15.00
2022-10-22T07:43:54.507Z,15.00
2022-10-22T07:46:22.693Z,15.00
2022-10-22T07:48:50.751Z,15.00
2022-10-22T07:51:20.118Z,15.00
2022-10-22T07:53:48.107Z,15.00
2022-10-22T07:56:16.229Z,15.00
2022-10-22T07:58:44.235Z,15.10
2022-10-22T08:01:12.403Z,15.10
2022-10-22T08:03:40.424Z,15.10
2022-10-22T08:06:08.973Z,15.10
2022-10-22T08:08:38.368Z,15.20
2022-10-22T08:11:06.603Z,15.20
2022-10-22T08:13:34.616Z,15.20
2022-10-22T08:16:02.980Z,15.20
2022-10-22T08:18:31.083Z,15.20
2022-10-22T08:20:59.286Z,15.20
2022-10-22T08:23:28.740Z,15.20
2022-10-22T08:25:59.631Z,15.20
2022-10-22T08:28:29.657Z,15.20
2022-10-22T08:30:57.804Z,15.30
2022-10-22T08:33:25.878Z,15.30
2022-10-22T08:35:54.189Z,15.30
2022-10-22T08:38:22.418Z,15.40
2022-10-22T08:40:53.926Z,15.40
2022-10-22T08:43:48.474Z,15.40
2022-10-22T08:46:35.155Z,15.40
2022-10-22T08:49:05.683Z,15.40
2022-10-22T08:51:36.937Z,15.40
2022-10-22T08:54:19.607Z,15.50
2022-10-22T08:56:56.783Z,15.60
2022-10-22T08:59:30.856Z,15.70
2022-10-22T09:01:59.024Z,15.80
2022-10-22T09:04:32.398Z,15.80
2022-10-22T09:07:01.548Z,15.80
2022-10-22T09:09:37.255Z,15.80
2022-10-22T09:12:07.209Z,15.90
2022-10-22T09:14:36.613Z,15.90
2022-10-22T09:17:14.514Z,15.90
2022-10-22T09:19:51.023Z,16.00
2022-10-22T09:22:27.739Z,15.90
2022-10-22T09:25:00.826Z,16.00
2022-10-22T09:27:30.765Z,15.90
2022-10-22T09:30:01.832Z,16.00
2022-10-22T09:32:30.118Z,15.90
2022-10-22T09:34:59.301Z,15.90
2022-10-22T09:37:30.150Z,16.00
2022-10-22T09:40:04.850Z,16.00
2022-10-22T09:42:34.920Z,16.00
2022-10-22T09:45:04.548Z,16.00
2022-10-22T09:47:43.456Z,16.00
2022-10-22T09:50:27.065Z,16.20
2022-10-22T09:53:05.325Z,16.40
2022-10-22T09:55:33.511Z,16.60
2022-10-22T09:58:02.065Z,16.70
2022-10-22T10:00:31.801Z,16.70
2022-10-22T10:03:01.079Z,16.70
2022-10-22T10:05:32.394Z,16.70
2022-10-22T10:08:03.548Z,16.70
2022-10-22T10:10:38.161Z,16.60
2022-10-22T10:13:19.556Z,16.60
2022-10-22T10:15:55.193Z,16.70
2022-10-22T10:18:34.788Z,16.90
2022-10-22T10:21:10.741Z,17.00
2022-10-22T10:23:51.392Z,17.00
2022-10-22T10:26:23.312Z,17.00
2022-10-22T10:29:07.041Z,17.00
2022-10-22T10:31:46.270Z,17.00
2022-10-22T10:34:25.687Z,17.10
2022-10-22T10:37:02.422Z,17.10
2022-10-22T10:39:40.173Z,17.10
2022-10-22T10:42:13.167Z,17.00
2022-10-22T10:45:01.101Z,16.90
2022-10-22T10:47:53.302Z,16.70
2022-10-22T10:50:28.927Z,16.90
2022-10-22T10:53:04.519Z,17.20
2022-10-22T10:55:37.170Z,17.40
2022-10-22T10:58:19.644Z,17.40
2022-10-22T11:00:57.111Z,17.30
2022-10-22T11:03:53.696Z,17.20
2022-10-22T11:06:25.384Z,17.00
2022-10-22T11:08:58.999Z,17.00
2022-10-22T11:11:34.344Z,17.00
2022-10-22T11:14:07.360Z,17.10
2022-10-22T11:16:40.091Z,17.20
2022-10-22T11:19:22.675Z,17.20
2022-10-22T11:22:00.920Z,17.20
2022-10-22T11:24:34.390Z,17.10
2022-10-22T11:27:06.278Z,17.00
2022-10-22T11:29:39.616Z,16.90
2022-10-22T11:32:11.938Z,16.80
2022-10-22T11:34:46.454Z,16.80
2022-10-22T11:37:15.521Z,16.80
2022-10-22T11:39:48.493Z,16.90
2022-10-22T11:42:21.822Z,17.00
2022-10-22T11:45:00.218Z,17.00
2022-10-22T11:47:32.776Z,17.10
2022-10-22T11:50:18.522Z,17.30
2022-10-22T11:52:56.255Z,17.50
2022-10-22T11:55:46.004Z,17.60
2022-10-22T11:58:42.231Z,17.80
2022-10-22T12:01:24.813Z,17.90
2022-10-22T12:03:54.648Z,18.10
2022-10-22T12:06:25.580Z,18.00
2022-10-22T12:08:59.815Z,18.10
2022-10-22T12:11:30.594Z,17.90
2022-10-22T12:14:12.927Z,17.70
2022-10-22T12:16:55.839Z,17.70
2022-10-22T12:19:31.393Z,17.60
2022-10-22T12:22:11.951Z,17.60
2022-10-22T12:24:42.431Z,17.70
2022-10-22T12:27:22.687Z,17.70
2022-10-22T12:29:54.940Z,17.60
2022-10-22T12:32:23.068Z,17.50
2022-10-22T12:34:52.935Z,17.50
2022-10-22T12:37:22.375Z,17.50
2022-10-22T12:39:50.393Z,17.60
2022-10-22T12:42:19.425Z,17.60
2022-10-22T12:44:47.472Z,17.70
2022-10-22T12:47:18.103Z,17.60
2022-10-22T12:49:49.260Z,17.60
2022-10-22T12:52:20.640Z,17.50
2022-10-22T12:54:54.805Z,17.50
2022-10-22T12:57:24.739Z,17.60
2022-10-22T12:59:53.273Z,17.70
2022-10-22T13:02:24.472Z,17.80
2022-10-22T13:05:24.930Z,17.90
2022-10-22T13:07:55.355Z,17.80
2022-10-22T13:10:32.615Z,17.90
2022-10-22T13:13:03.249Z,18.00
2022-10-22T13:15:38.607Z,18.20
2022-10-22T13:18:16.308Z,18.20
2022-10-22T13:20:55.943Z,18.30
2022-10-22T13:23:25.834Z,18.20
2022-10-22T13:26:04.611Z,18.00
2022-10-22T13:28:33.930Z,18.00
2022-10-22T13:31:03.935Z,17.90
2022-10-22T13:33:35.550Z,17.80
2022-10-22T13:36:04.246Z,17.80
2022-10-22T13:38:32.591Z,17.80
2022-10-22T13:41:03.243Z,17.80
2022-10-22T13:43:31.427Z,17.80
2022-10-22T13:46:01.796Z,17.80
2022-10-22T13:48:31.561Z,17.90
2022-10-22T13:50:59.696Z,17.90
2022-10-22T13:53:29.890Z,17.90
2022-10-22T13:55:57.916Z,17.90
2022-10-22T13:58:27.384Z,17.90
2022-10-22T14:00:57.091Z,17.80
2022-10-22T14:03:29.491Z,17.70
2022-10-22T14:05:57.911Z,17.60
2022-10-22T14:08:27.035Z,17.60
2022-10-22T14:10:55.964Z,17.60
2022-10-22T14:13:24.334Z,17.60
2022-10-22T14:15:54.096Z,17.70
2022-10-22T14:18:26.566Z,17.70
2022-10-22T14:20:57.067Z,17.50
2022-10-22T14:23:27.884Z,17.40
2022-10-22T14:25:56.189Z,17.30
2022-10-22T14:28:24.362Z,17.20
2022-10-22T14:30:54.071Z,17.20
2022-10-22T14:33:28.940Z,17.10
2022-10-22T14:36:00.073Z,17.00
2022-10-22T14:38:28.251Z,16.90
2022-10-22T14:40:56.434Z,16.80
2022-10-22T14:43:26.988Z,16.90
2022-10-22T14:45:56.562Z,17.00
2022-10-22T14:48:24.987Z,17.00
2022-10-22T14:50:53.127Z,17.10
2022-10-22T14:53:21.197Z,17.10
2022-10-22T14:55:51.503Z,17.10
2022-10-22T14:58:19.549Z,17.00
2022-10-22T15:00:47.599Z,16.90
2022-10-22T15:03:17.140Z,16.80
2022-10-22T15:05:45.772Z,16.70
2022-10-22T15:08:15.322Z,16.70
2022-10-22T15:10:43.500Z,16.70
2022-10-22T15:13:11.657Z,16.70
2022-10-22T15:15:41.892Z,16.70
2022-10-22T15:18:09.983Z,16.70
2022-10-22T15:20:39.444Z,16.70
2022-10-22T15:23:07.751Z,16.70
2022-10-22T15:25:35.895Z,16.70
2022-10-22T15:28:09.492Z,16.70
2022-10-22T15:30:38.421Z,16.70
2022-10-22T15:33:06.737Z,16.70
2022-10-22T15:35:35.102Z,16.70
2022-10-22T15:38:06.601Z,16.60
2022-10-22T15:40:34.749Z,16.70
2022-10-22T15:43:02.949Z,16.60
2022-10-22T15:45:31.150Z,16.70
2022-10-22T15:47:59.594Z,16.60
2022-10-22T15:50:27.747Z,16.50
2022-10-22T15:52:55.743Z,16.50
2022-10-22T15:55:25.562Z,16.50
2022-10-22T15:57:58.058Z,16.40
2022-10-22T16:00:28.791Z,16.40
2022-10-22T16:02:56.797Z,16.40
2022-10-22T16:05:24.974Z,16.40
2022-10-22T16:07:55.757Z,16.40
2022-10-22T16:10:25.539Z,16.30
2022-10-22T16:12:54.672Z,16.30
2022-10-22T16:15:22.703Z,16.20
2022-10-22T16:17:53.038Z,16.10
2022-10-22T16:20:24.408Z,16.10
2022-10-22T16:22:52.454Z,16.00
2022-10-22T16:25:20.503Z,16.00
2022-10-22T16:27:52.004Z,15.90
2022-10-22T16:30:20.041Z,15.80
2022-10-22T16:32:48.047Z,15.80
2022-10-22T16:35:16.230Z,15.70
2022-10-22T16:37:44.331Z,15.70
2022-10-22T16:40:13.677Z,15.60
2022-10-22T16:42:42.022Z,15.60
2022-10-22T16:45:12.178Z,15.60
2022-10-22T16:47:43.004Z,15.60
2022-10-22T16:50:11.561Z,15.60
2022-10-22T16:52:39.569Z,15.60
2022-10-22T16:55:08.206Z,15.60
2022-10-22T16:57:36.233Z,15.60
2022-10-22T17:00:05.413Z,15.60
2022-10-22T17:02:35.290Z,15.60
2022-10-22T17:05:03.416Z,15.70
2022-10-22T17:07:31.424Z,15.70
2022-10-22T17:09:59.416Z,15.70
2022-10-22T17:12:27.424Z,15.70
2022-10-22T17:14:55.451Z,15.70
2022-10-22T17:17:23.425Z,15.60
2022-10-22T17:19:53.110Z,15.60
2022-10-22T17:22:21.228Z,15.60
2022-10-22T17:25:05.247Z,15.50
2022-10-22T17:27:33.225Z,15.50
2022-10-22T17:30:01.477Z,15.50
2022-10-22T17:32:30.063Z,15.40
2022-10-22T17:34:59.520Z,15.30
2022-10-22T17:37:27.540Z,15.20
2022-10-22T17:39:55.541Z,15.00
2022-10-22T17:42:23.564Z,14.90
2022-10-22T17:44:51.697Z,14.90
2022-10-22T17:47:19.821Z,14.80
2022-10-22T17:49:47.840Z,14.70
2022-10-22T17:52:17.717Z,14.60
2022-10-22T17:54:45.722Z,14.50
2022-10-22T17:57:14.312Z,14.40
2022-10-22T17:59:42.320Z,14.30
2022-10-22T18:02:15.509Z,14.30
2022-10-22T18:04:43.649Z,14.30
2022-10-22T18:07:11.844Z,14.20
2022-10-22T18:09:42.878Z,14.20
2022-10-22T18:12:13.725Z,14.10
2022-10-22T18:14:41.897Z,14.00
2022-10-22T18:17:10.066Z,13.90
2022-10-22T18:19:38.210Z,14.00
2022-10-22T18:22:07.851Z,13.90
2022-10-22T18:24:38.919Z,14.00
2022-10-22T18:27:08.370Z,14.00
2022-10-22T18:29:36.439Z,14.00
2022-10-22T18:32:09.408Z,14.00
2022-10-22T18:34:40.463Z,14.00
2022-10-22T18:37:08.564Z,13.90
2022-10-22T18:39:36.685Z,13.80
2022-10-22T18:42:07.253Z,13.80
2022-10-22T18:44:37.627Z,13.80
2022-10-22T18:47:06.335Z,13.70
2022-10-22T18:49:34.503Z,13.70
2022-10-22T18:52:02.933Z,13.70
2022-10-22T18:54:31.006Z,13.70
2022-10-22T18:57:01.965Z,13.60
2022-10-22T18:59:31.504Z,13.60
2022-10-22T19:02:01.429Z,13.60
2022-10-22T19:04:33.703Z,13.60
2022-10-22T19:07:01.823Z,13.50
2022-10-22T19:09:30.027Z,13.40
2022-10-22T19:11:58.230Z,13.40
2022-10-22T19:14:26.441Z,13.30
2022-10-22T19:16:54.901Z,13.30
2022-10-22T19:19:24.671Z,13.30
2022-10-22T19:21:52.897Z,13.20
2022-10-22T19:24:21.603Z,13.20
2022-10-22T19:26:50.497Z,13.10
2022-10-22T19:29:21.090Z,13.10
2022-10-22T19:31:51.288Z,13.10
2022-10-22T19:34:19.961Z,13.00
2022-10-22T19:36:51.660Z,13.00
2022-10-22T19:39:19.906Z,13.00
2022-10-22T19:41:47.968Z,12.90
2022-10-22T19:44:16.088Z,12.90
2022-10-22T19:46:44.183Z,12.80
2022-10-22T19:49:12.543Z,12.80
2022-10-22T19:51:41.056Z,12.80
2022-10-22T19:54:18.296Z,12.70
2022-10-22T19:56:47.336Z,12.70
2022-10-22T19:59:15.656Z,12.60
2022-10-22T20:01:44.121Z,12.50
2022-10-22T20:04:16.328Z,12.50
2022-10-22T20:06:45.045Z,12.50
2022-10-22T20:09:15.343Z,12.50
2022-10-22T20:11:43.646Z,12.40
2022-10-22T20:14:11.624Z,12.40
2022-10-22T20:16:40.167Z,12.40
2022-10-22T20:19:09.106Z,12.40
2022-10-22T20:21:37.442Z,12.30
2022-10-22T20:24:05.903Z,12.30
2022-10-22T20:26:35.959Z,12.30
2022-10-22T20:29:04.049Z,12.30
2022-10-22T20:31:33.071Z,12.30
2022-10-22T20:34:02.536Z,12.20
2022-10-22T20:36:31.666Z,12.20
2022-10-22T20:39:01.646Z,12.20
2022-10-22T20:41:29.868Z,12.20
2022-10-22T20:43:59.232Z,12.10
2022-10-22T20:46:30.161Z,12.10
2022-10-22T20:49:02.276Z,12.10
2022-10-22T20:51:30.644Z,12.10
2022-10-22T20:53:58.898Z,12.00
2022-10-22T20:56:28.043Z,12.00
2022-10-22T20:59:04.410Z,12.00
2022-10-22T21:01:36.629Z,12.00
2022-10-22T21:04:05.298Z,12.00
2022-10-22T21:06:34.308Z,11.90
2022-10-22T21:09:02.402Z,11.90
2022-10-22T21:11:30.507Z,11.90
2022-10-22T21:13:58.524Z,11.90
2022-10-22T21:16:27.005Z,11.80
2022-10-22T21:18:56.718Z,11.80
2022-10-22T21:21:24.831Z,11.80
2022-10-22T21:23:53.270Z,11.70
2022-10-22T21:26:22.401Z,11.70
2022-10-22T21:28:50.459Z,11.70
2022-10-22T21:31:21.978Z,11.70
2022-10-22T21:33:51.548Z,11.70
2022-10-22T21:36:23.402Z,11.70
2022-10-22T21:38:52.465Z,11.70
2022-10-22T21:41:22.812Z,11.70
2022-10-22T21:43:52.103Z,11.70
2022-10-22T21:46:21.694Z,11.70
2022-10-22T21:48:54.536Z,11.60
2022-10-22T21:51:25.497Z,11.70
2022-10-22T21:53:54.870Z,11.70
2022-10-22T21:56:24.521Z,11.70
2022-10-22T21:58:52.602Z,11.70
2022-10-22T22:01:21.262Z,11.70
2022-10-22T22:03:50.648Z,11.70
2022-10-22T22:06:21.474Z,11.70
2022-10-22T22:08:53.796Z,11.70
2022-10-22T22:11:24.033Z,11.70
2022-10-22T22:13:52.571Z,11.70
2022-10-22T22:16:27.216Z,11.70
2022-10-22T22:18:57.046Z,11.70
2022-10-22T22:21:25.207Z,11.70
2022-10-22T22:23:54.864Z,11.60
2022-10-22T22:26:28.616Z,11.60
2022-10-22T22:28:58.938Z,11.60
2022-10-22T22:31:29.259Z,11.60
2022-10-22T22:34:01.414Z,11.60
2022-10-22T22:36:33.144Z,11.60
2022-10-22T22:39:02.521Z,11.60
2022-10-22T22:41:30.518Z,11.60
2022-10-22T22:43:58.504Z,11.60
2022-10-22T22:46:26.633Z,11.50
2022-10-22T22:48:54.641Z,11.60
2022-10-22T22:51:22.718Z,11.50
2022-10-22T22:53:51.016Z,11.50
2022-10-22T22:56:22.317Z,11.50
2022-10-22T22:58:50.854Z,11.50
2022-10-22T23:01:21.287Z,11.50
2022-10-22T23:03:53.513Z,11.60
2022-10-22T23:06:21.842Z,11.60
2022-10-22T23:08:51.904Z,11.60
2022-10-22T23:11:22.886Z,11.50
2022-10-22T23:13:54.562Z,11.50
2022-10-22T23:16:25.063Z,11.50
2022-10-22T23:18:54.788Z,11.50
2022-10-22T23:21:25.084Z,11.50
2022-10-22T23:23:54.648Z,11.50
2022-10-22T23:26:26.697Z,11.50
2022-10-22T23:28:55.190Z,11.50
2022-10-22T23:31:23.234Z,11.40
2022-10-22T23:33:51.258Z,11.40
2022-10-22T23:36:19.304Z,11.40
2022-10-22T23:38:47.474Z,11.30
2022-10-22T23:41:15.623Z,11.40
2022-10-22T23:43:45.029Z,11.30
2022-10-22T23:46:14.754Z,11.30
2022-10-22T23:48:43.173Z,11.30
2022-10-22T23:51:13.209Z,11.30
2022-10-22T23:53:41.617Z,11.20
2022-10-22T23:56:11.584Z,11.20
2022-10-22T23:58:39.923Z,11.20
